Terminal Aerodrome Forecast
Issued by NWS Tallahassee, FL

Current Version | Previous Version | Text Only | Print | Product List | Glossary On
Versions: 1 2 3 4 5 6 7 8 9 10 11 12 13
554
FTUS42 KTAE 171725
TAFTLH
TAF
KTLH 171725Z 1718/1818 33013G20KT P6SM BKN011
     FM171900 33013G20KT P6SM SKC
     FM180000 33007KT P6SM SKC=

USA.gov is the U.S. government's official web portal to all federal, state and local government web resources and services.